Time;durP1;ratioP1;P1;durP2;ratioP2;P2;SDS_P1;SDS_P2;PMS_P1;PMS_P2;Temp;Humidity;BMP_temperature;BMP_pressure;BME280_temperature;BME280_humidity;BME280_pressure;Samples;Min_cycle;Max_cycle;Signal;HPM_P1;HPM_P2
2022/10/03 00:02:50;;;;;;;0.83;0.83;;;;;;;12.18;100.00;96099.03;4397995;32;20264;-66
2022/10/03 00:05:26;;;;;;;0.90;0.90;;;;;;;12.22;100.00;96100.06;4395286;32;20184;-66
2022/10/03 00:08:08;;;;;;;5.37;1.23;;;;;;;12.23;100.00;96096.34;4388814;32;20196;-66
2022/10/03 00:11:05;;;;;;;1.07;1.07;;;;;;;12.23;100.00;96096.34;4365807;32;20291;-66
2022/10/03 00:13:49;;;;;;;0.60;0.60;;;;;;;12.24;100.00;96103.25;4384852;32;20192;-66
2022/10/03 00:16:28;;;;;;;1.33;1.33;;;;;;;12.22;100.00;96101.94;4397810;32;20218;-66
2022/10/03 00:19:12;;;;;;;1.40;1.30;;;;;;;12.11;100.00;96098.59;4353238;32;20241;-66
2022/10/03 00:22:00;;;;;;;1.00;0.83;;;;;;;12.13;100.00;96101.75;4398885;32;20185;-67
2022/10/03 00:24:44;;;;;;;0.97;0.97;;;;;;;12.13;100.00;96108.94;4394355;32;20271;-66
2022/10/03 00:27:41;;;;;;;0.97;0.97;;;;;;;12.09;100.00;96110.56;4388471;32;20180;-66
2022/10/03 00:30:23;;;;;;;0.87;0.87;;;;;;;12.10;100.00;96115.63;4341989;32;20203;-66
2022/10/03 00:33:19;;;;;;;1.10;1.10;;;;;;;12.03;100.00;96115.19;4400294;32;20188;-66
2022/10/03 00:36:03;;;;;;;0.90;0.90;;;;;;;12.01;100.00;96114.66;4367526;32;20232;-66
2022/10/03 00:38:46;;;;;;;1.50;1.50;;;;;;;12.12;100.00;96110.00;4398561;32;20188;-66
2022/10/03 00:41:42;;;;;;;0.87;0.87;;;;;;;12.00;100.00;96121.84;4388250;32;20192;-66
2022/10/03 00:44:45;;;;;;;0.90;0.90;;;;;;;12.02;100.00;96121.56;4396764;32;23488;-66
2022/10/03 00:47:36;;;;;;;1.13;1.13;;;;;;;11.91;100.00;96131.50;4392822;32;20203;-66
2022/10/03 00:50:30;;;;;;;0.80;0.80;;;;;;;11.83;100.00;96131.34;4344612;32;20212;-67
2022/10/03 00:53:08;;;;;;;1.30;1.30;;;;;;;11.92;100.00;96129.63;4385303;32;20187;-67
2022/10/03 00:55:52;;;;;;;0.80;0.80;;;;;;;11.97;100.00;96125.06;4406282;32;20185;-67
2022/10/03 00:58:51;;;;;;;1.70;1.60;;;;;;;11.91;100.00;96128.06;4386313;32;20184;-67
2022/10/03 01:01:36;;;;;;;2.30;1.27;;;;;;;11.88;100.00;96144.56;4395675;32;20192;-67
2022/10/03 01:04:17;;;;;;;1.77;1.67;;;;;;;11.89;100.00;96143.50;4386608;32;20214;-66
2022/10/03 01:07:15;;;;;;;1.13;1.13;;;;;;;11.98;100.00;96134.63;4394271;32;20203;-66
2022/10/03 01:09:56;;;;;;;1.00;1.00;;;;;;;11.95;100.00;96131.75;4380803;32;20206;-67
2022/10/03 01:12:56;;;;;;;1.90;1.80;;;;;;;11.96;100.00;96139.44;4379912;32;20196;-66
2022/10/03 01:15:49;;;;;;;1.60;1.50;;;;;;;11.86;100.00;96139.53;4357921;32;20199;-67
2022/10/03 01:18:23;;;;;;;1.27;1.27;;;;;;;11.84;100.00;96139.03;4394010;32;20206;-66
2022/10/03 01:21:09;;;;;;;0.77;0.77;;;;;;;11.82;100.00;96149.16;4398443;32;20197;-66
2022/10/03 01:23:56;;;;;;;1.10;1.10;;;;;;;11.88;100.00;96141.91;4404911;32;20179;-67
2022/10/03 01:26:39;;;;;;;1.90;1.80;;;;;;;11.67;100.00;96138.59;4374292;32;20192;-66
2022/10/03 01:32:25;;;;;;;1.43;1.43;;;;;;;11.75;100.00;96139.88;4388138;32;20263;-66
2022/10/03 01:35:07;;;;;;;1.17;1.17;;;;;;;11.59;100.00;96142.69;4400040;32;20239;-66
2022/10/03 01:38:12;;;;;;;3.03;1.27;;;;;;;11.72;100.00;96141.22;4392124;32;20329;-66
2022/10/03 01:41:01;;;;;;;1.20;1.20;;;;;;;11.62;100.00;96141.34;4377405;32;20181;-66
2022/10/03 01:43:49;;;;;;;1.00;1.00;;;;;;;11.55;100.00;96144.31;4369054;32;20236;-66
2022/10/03 01:46:53;;;;;;;1.03;1.03;;;;;;;11.56;100.00;96151.22;4382365;32;20267;-66
2022/10/03 01:49:26;;;;;;;1.23;1.23;;;;;;;11.55;100.00;96160.25;4376469;32;20218;-66
2022/10/03 01:52:09;;;;;;;0.87;0.87;;;;;;;11.61;100.00;96167.13;4390665;32;20276;-67
2022/10/03 01:54:38;;;;;;;1.47;1.47;;;;;;;11.66;100.00;96169.72;4368217;32;20196;-66
2022/10/03 01:57:17;;;;;;;1.87;1.73;;;;;;;11.63;100.00;96166.84;4408865;32;20192;-67
2022/10/03 01:59:57;;;;;;;1.77;1.67;;;;;;;11.76;100.00;96173.38;4372993;32;20198;-66
2022/10/03 02:02:41;;;;;;;1.87;1.87;;;;;;;11.63;100.00;96183.59;4370044;32;20280;-66
2022/10/03 02:05:23;;;;;;;1.90;1.77;;;;;;;11.62;100.00;96192.63;4382647;32;20200;-66
2022/10/03 02:08:13;;;;;;;1.70;1.60;;;;;;;11.79;100.00;96194.12;4372265;32;20235;-66
2022/10/03 02:10:59;;;;;;;2.27;2.07;;;;;;;11.71;100.00;96200.78;4389682;32;20271;-66
2022/10/03 02:13:44;;;;;;;12.67;1.30;;;;;;;11.74;100.00;96194.12;4365077;32;20198;-66
2022/10/03 02:16:39;;;;;;;1.50;1.50;;;;;;;11.80;100.00;96203.69;4366500;32;20281;-66
2022/10/03 02:19:19;;;;;;;1.83;1.73;;;;;;;11.85;100.00;96206.25;4378520;32;20199;-66
2022/10/03 02:22:13;;;;;;;1.30;1.30;;;;;;;11.86;100.00;96207.84;4367556;32;20207;-67
2022/10/03 02:25:22;;;;;;;1.13;1.00;;;;;;;11.68;100.00;96196.81;4388411;32;20442;-66
2022/10/03 02:28:29;;;;;;;2.17;2.07;;;;;;;11.82;100.00;96191.69;4367944;32;20188;-67
2022/10/03 02:31:38;;;;;;;2.90;1.70;;;;;;;11.68;100.00;96191.50;4381249;32;20203;-67
2022/10/03 02:34:06;;;;;;;1.60;1.53;;;;;;;11.59;100.00;96187.84;4390869;32;20207;-67
2022/10/03 02:37:02;;;;;;;2.07;1.50;;;;;;;11.53;100.00;96190.81;4399701;32;20181;-66
2022/10/03 02:40:09;;;;;;;1.73;1.63;;;;;;;11.57;100.00;96190.00;4365096;32;20203;-66
2022/10/03 02:43:15;;;;;;;2.07;1.97;;;;;;;11.44;100.00;96193.25;4358110;32;20240;-66
2022/10/03 02:46:24;;;;;;;1.30;1.30;;;;;;;11.39;100.00;96187.22;4396006;32;20357;-67
2022/10/03 02:49:11;;;;;;;1.20;1.20;;;;;;;11.43;100.00;96194.34;4361062;32;20261;-66
2022/10/03 02:52:17;;;;;;;1.30;1.30;;;;;;;11.36;100.00;96199.19;4355916;32;20255;-67
2022/10/03 02:55:07;;;;;;;2.20;1.67;;;;;;;11.32;100.00;96200.81;4357695;32;20196;-67
2022/10/03 02:58:10;;;;;;;1.33;1.33;;;;;;;11.36;100.00;96207.16;4352909;32;20207;-66
2022/10/03 03:00:38;;;;;;;1.83;1.73;;;;;;;11.39;100.00;96200.50;4382363;32;20187;-67
2022/10/03 03:03:32;;;;;;;1.33;1.33;;;;;;;11.27;100.00;96206.13;4410117;32;20188;-67
2022/10/03 03:06:29;;;;;;;2.13;2.03;;;;;;;11.27;100.00;96206.13;4371034;32;20200;-66
2022/10/03 03:09:14;;;;;;;1.90;1.80;;;;;;;11.19;100.00;96207.53;4389987;32;20224;-66
2022/10/03 03:12:00;;;;;;;2.17;2.07;;;;;;;11.21;100.00;96207.25;4379866;32;20192;-67
2022/10/03 03:14:57;;;;;;;1.67;1.57;;;;;;;11.13;100.00;96207.81;4397279;32;20268;-66
2022/10/03 03:18:03;;;;;;;1.50;1.40;;;;;;;11.15;100.00;96203.84;4377841;32;20188;-66
2022/10/03 03:20:56;;;;;;;1.47;1.47;;;;;;;11.23;100.00;96211.19;4389273;32;20245;-67
2022/10/03 03:23:53;;;;;;;2.67;2.53;;;;;;;11.15;100.00;96214.44;4395748;32;20239;-66
2022/10/03 03:26:46;;;;;;;2.20;2.10;;;;;;;11.24;100.00;96217.31;4360285;32;20185;-66
2022/10/03 03:29:37;;;;;;;1.50;1.50;;;;;;;11.13;100.00;96221.09;4358796;32;20184;-66
2022/10/03 03:32:26;;;;;;;2.07;1.97;;;;;;;11.00;100.00;96231.28;4376090;32;20192;-67
2022/10/03 03:35:26;;;;;;;1.97;1.80;;;;;;;10.94;100.00;96235.00;4378566;32;20189;-66
2022/10/03 03:38:35;;;;;;;1.53;1.53;;;;;;;10.87;100.00;96241.66;4372911;32;20184;-67
2022/10/03 03:41:38;;;;;;;2.03;1.93;;;;;;;10.97;100.00;96239.78;4386788;32;20184;-66
2022/10/03 03:44:44;;;;;;;2.93;2.50;;;;;;;10.97;100.00;96244.28;4374480;32;20255;-66
2022/10/03 03:47:41;;;;;;;1.43;1.43;;;;;;;11.04;100.00;96244.75;4386962;32;20280;-67
2022/10/03 03:50:30;;;;;;;2.57;2.47;;;;;;;10.94;100.00;96239.53;4372801;32;20191;-67
2022/10/03 03:53:26;;;;;;;2.73;2.57;;;;;;;10.90;100.00;96241.91;4375008;32;20195;-67
2022/10/03 03:56:29;;;;;;;2.23;2.13;;;;;;;10.90;100.00;96239.25;4406257;32;20189;-67
2022/10/03 03:59:20;;;;;;;1.83;1.73;;;;;;;10.77;100.00;96237.22;4371062;32;20239;-67
2022/10/03 04:02:06;;;;;;;1.53;1.50;;;;;;;10.85;100.00;96241.94;4380897;32;20185;-67
2022/10/03 04:04:40;;;;;;;1.63;1.63;;;;;;;10.70;100.00;96238.56;4389266;32;20200;-65
2022/10/03 04:07:40;;;;;;;1.83;1.83;;;;;;;10.83;100.00;96243.25;4365521;32;20200;-65
2022/10/03 04:10:29;;;;;;;1.67;1.57;;;;;;;10.81;100.00;96240.88;4362148;32;20188;-66
2022/10/03 04:13:28;;;;;;;2.27;2.17;;;;;;;10.69;100.00;96253.69;4373360;32;20268;-67
2022/10/03 04:16:11;;;;;;;2.37;2.27;;;;;;;10.70;100.00;96249.16;4370204;32;20192;-68
2022/10/03 04:19:05;;;;;;;1.80;1.70;;;;;;;10.62;100.00;96243.34;4391953;32;20191;-67
2022/10/03 04:21:55;;;;;;;1.43;1.37;;;;;;;10.62;100.00;96251.28;4388072;32;20208;-67
2022/10/03 04:25:05;;;;;;;2.57;2.37;;;;;;;10.49;100.00;96248.44;4408540;32;20192;-65
2022/10/03 04:28:14;;;;;;;2.37;2.20;;;;;;;10.56;100.00;96248.94;4360502;32;20259;-65
2022/10/03 04:31:05;;;;;;;1.97;1.87;;;;;;;10.52;100.00;96248.69;4383007;32;20310;-66
2022/10/03 04:34:05;;;;;;;2.13;2.03;;;;;;;10.48;100.00;96246.84;4386773;32;20211;-66
2022/10/03 04:36:59;;;;;;;2.20;2.10;;;;;;;10.54;100.00;96241.25;4377861;32;20189;-68
2022/10/03 04:39:44;;;;;;;2.13;2.03;;;;;;;10.36;100.00;96249.78;4379732;32;20198;-67
2022/10/03 04:42:41;;;;;;;1.57;1.47;;;;;;;10.50;100.00;96250.81;4387457;32;20169;-68
2022/10/03 04:45:12;;;;;;;1.83;1.83;;;;;;;10.47;100.00;96246.03;4404257;32;20175;-68
2022/10/03 04:47:58;;;;;;;2.10;2.00;;;;;;;10.45;100.00;96247.38;4391978;32;20326;-66
2022/10/03 04:50:56;;;;;;;1.53;1.53;;;;;;;10.49;100.00;96243.13;4388122;32;20192;-66
2022/10/03 04:53:50;;;;;;;2.30;2.20;;;;;;;10.50;100.00;96250.03;4346057;32;20185;-65
2022/10/03 04:56:30;;;;;;;2.43;2.30;;;;;;;10.41;100.00;96252.41;4394095;32;20188;-65
2022/10/03 04:59:26;;;;;;;2.27;2.17;;;;;;;10.47;100.00;96250.56;4383883;32;20180;-65
2022/10/03 05:02:02;;;;;;;2.23;2.13;;;;;;;10.43;100.00;96255.59;4383412;32;20207;-65
2022/10/03 05:04:59;;;;;;;2.10;2.00;;;;;;;10.41;100.00;96246.31;4399737;32;20194;-65
2022/10/03 05:07:30;;;;;;;1.90;1.80;;;;;;;10.50;100.00;96250.03;4380310;32;20211;-65
2022/10/03 05:10:02;;;;;;;2.37;2.17;;;;;;;10.56;100.00;96254.25;4389578;32;20216;-65
2022/10/03 05:12:40;;;;;;;2.57;2.27;;;;;;;10.54;100.00;96251.06;4396169;32;20236;-65
2022/10/03 05:15:27;;;;;;;2.73;2.50;;;;;;;10.47;100.00;96251.34;4387008;32;20188;-66
2022/10/03 05:18:09;;;;;;;2.57;2.33;;;;;;;10.44;100.00;96246.56;4374960;32;20245;-65
2022/10/03 05:21:01;;;;;;;2.43;2.33;;;;;;;10.37;100.00;96247.94;4375549;32;20185;-65
2022/10/03 05:23:46;;;;;;;1.83;1.73;;;;;;;10.49;100.00;96248.44;4378535;32;20180;-65
2022/10/03 05:26:29;;;;;;;1.70;1.63;;;;;;;10.46;100.00;96259.56;4366839;32;20266;-66
2022/10/03 05:29:04;;;;;;;2.17;2.07;;;;;;;10.50;100.00;96256.13;4389441;32;20227;-66
2022/10/03 05:31:48;;;;;;;1.57;1.57;;;;;;;10.53;100.00;96265.41;4367382;32;20258;-66
2022/10/03 05:34:32;;;;;;;1.10;1.07;;;;;;;10.64;100.00;96264.31;4380655;32;20188;-66
2022/10/03 05:37:28;;;;;;;2.13;2.03;;;;;;;10.62;100.00;96274.37;4374451;32;20188;-66
2022/10/03 05:40:16;;;;;;;1.47;1.43;;;;;;;10.72;100.00;96270.91;4364088;32;20192;-66
2022/10/03 05:43:01;;;;;;;1.77;1.70;;;;;;;10.64;100.00;96270.41;4373428;32;20218;-67
2022/10/03 05:45:47;;;;;;;1.73;1.73;;;;;;;10.55;100.00;96279.19;4368947;32;20253;-66
2022/10/03 05:48:51;;;;;;;1.17;1.17;;;;;;;10.53;100.00;96278.66;4398078;32;20184;-66
2022/10/03 05:51:40;;;;;;;2.33;2.23;;;;;;;10.37;100.00;96277.12;4385276;32;20200;-66
2022/10/03 05:54:24;;;;;;;2.00;1.90;;;;;;;10.44;100.00;96277.62;4384783;32;20245;-66
2022/10/03 05:57:15;;;;;;;1.93;1.83;;;;;;;10.43;100.00;96286.63;4401853;32;20218;-68
2022/10/03 06:00:18;;;;;;;1.90;1.80;;;;;;;10.49;100.00;96293.53;4391088;32;20184;-66
2022/10/03 06:03:12;;;;;;;1.40;1.40;;;;;;;10.46;100.00;96292.19;4392758;32;20245;-66
2022/10/03 06:05:50;;;;;;;1.77;1.67;;;;;;;10.57;100.00;96293.78;4367208;32;20247;-66
2022/10/03 06:08:39;;;;;;;1.67;1.57;;;;;;;10.63;100.00;96294.53;4381476;32;20210;-66
2022/10/03 06:11:30;;;;;;;2.43;2.33;;;;;;;10.59;100.00;96298.81;4367013;32;20204;-65
2022/10/03 06:14:34;;;;;;;1.80;1.70;;;;;;;10.61;100.00;96307.28;4384725;32;20208;-66
2022/10/03 06:17:23;;;;;;;1.40;1.40;;;;;;;10.47;100.00;96308.91;4339949;32;20225;-65
2022/10/03 06:19:51;;;;;;;1.53;1.53;;;;;;;10.40;100.00;96308.38;4401418;32;20187;-65
2022/10/03 06:22:54;;;;;;;1.57;1.43;;;;;;;10.39;100.00;96326.19;4396824;32;20238;-67
2022/10/03 06:25:25;;;;;;;2.00;1.90;;;;;;;10.46;100.00;96318.72;4376010;32;20210;-65
2022/10/03 06:28:06;;;;;;;3.87;2.70;;;;;;;10.45;100.00;96326.94;4363303;32;20288;-66
2022/10/03 06:30:49;;;;;;;1.47;1.37;;;;;;;10.53;100.00;96334.37;4381732;32;20211;-66
2022/10/03 06:33:37;;;;;;;3.70;2.33;;;;;;;10.51;100.00;96331.19;4401616;32;20203;-66
2022/10/03 06:36:44;;;;;;;2.27;2.07;;;;;;;10.63;100.00;96337.81;4349673;32;20185;-65
2022/10/03 06:39:49;;;;;;;1.23;1.23;;;;;;;10.55;100.00;96332.25;4392310;32;20192;-67
2022/10/03 06:42:39;;;;;;;1.73;1.63;;;;;;;11.09;100.00;96348.31;4394503;32;20255;-67
2022/10/03 06:45:35;;;;;;;1.40;1.40;;;;;;;11.46;100.00;96342.56;4379420;32;20188;-67
2022/10/03 06:48:13;;;;;;;1.57;1.53;;;;;;;11.69;100.00;96346.44;4408695;32;20211;-67
2022/10/03 06:51:10;;;;;;;1.70;1.63;;;;;;;11.80;100.00;96355.22;4398262;32;20193;-67
2022/10/03 06:53:51;;;;;;;1.27;1.20;;;;;;;11.86;100.00;96356.75;4395670;32;20206;-67
2022/10/03 06:56:30;;;;;;;1.60;1.50;;;;;;;12.23;100.00;96345.59;4397478;32;20197;-68
2022/10/03 06:59:04;;;;;;;1.20;1.20;;;;;;;12.12;100.00;96355.50;4378558;32;20244;-67
2022/10/03 07:02:02;;;;;;;4.37;1.60;;;;;;;12.18;100.00;96357.06;4421978;32;20184;-67
2022/10/03 07:05:13;;;;;;;1.73;1.63;;;;;;;12.26;100.00;96351.13;4396450;32;20187;-67
2022/10/03 07:07:56;;;;;;;1.57;1.57;;;;;;;12.28;99.48;96356.97;4341503;32;20189;-67
2022/10/03 07:10:44;;;;;;;1.57;1.47;;;;;;;12.43;100.00;96357.94;4359492;32;20203;-66
2022/10/03 07:13:25;;;;;;;4.00;2.23;;;;;;;12.48;99.62;96363.22;4393068;32;20315;-67
2022/10/03 07:16:34;;;;;;;1.50;1.50;;;;;;;12.50;99.18;96355.75;4376861;32;20200;-67
2022/10/03 07:19:26;;;;;;;1.47;1.47;;;;;;;12.59;99.08;96357.53;4367752;32;20227;-67
2022/10/03 07:22:29;;;;;;;1.13;1.13;;;;;;;12.54;97.93;96359.44;4398185;32;20225;-67
2022/10/03 07:25:19;;;;;;;1.70;1.60;;;;;;;12.59;98.28;96360.19;4378450;32;20203;-67
2022/10/03 07:28:22;;;;;;;1.67;1.57;;;;;;;12.74;98.93;96359.25;4344236;32;20223;-66
2022/10/03 07:31:13;;;;;;;1.50;1.43;;;;;;;12.70;98.53;96368.88;4373400;32;20196;-67
2022/10/03 07:34:16;;;;;;;1.20;1.20;;;;;;;12.71;97.21;96368.59;4393793;32;22226;-66
2022/10/03 07:40:25;;;;;;;1.20;1.20;;;;;;;12.23;96.79;96373.00;4378045;32;20264;-66
2022/10/03 07:43:29;;;;;;;2.47;1.17;;;;;;;12.06;97.07;96383.22;4378110;32;20189;-65
2022/10/03 07:46:17;;;;;;;1.27;1.27;;;;;;;11.80;98.80;96379.13;4380170;32;20196;-66
2022/10/03 07:49:07;;;;;;;4.07;1.97;;;;;;;11.78;98.89;96371.44;4387118;32;20184;-65
2022/10/03 07:52:24;;;;;;;2.60;1.33;;;;;;;11.79;99.62;96386.31;4363593;32;20188;-65
2022/10/03 07:55:12;;;;;;;2.83;2.00;;;;;;;11.86;99.41;96388.66;4392880;32;20206;-66
2022/10/03 07:58:15;;;;;;;1.83;1.73;;;;;;;11.94;99.07;96391.53;4365084;32;20189;-66
2022/10/03 08:00:55;;;;;;;9.70;2.33;;;;;;;11.83;99.51;96391.88;4337338;32;20206;-65
2022/10/03 08:04:04;;;;;;;8.90;2.00;;;;;;;11.96;99.63;96391.25;4373751;32;20274;-65
2022/10/03 08:06:46;;;;;;;1.93;1.83;;;;;;;12.19;98.60;96385.28;4384747;32;20219;-65
2022/10/03 08:09:33;;;;;;;3.90;2.47;;;;;;;12.12;97.69;96383.97;4390412;32;20195;-64
2022/10/03 08:12:39;;;;;;;2.07;1.97;;;;;;;12.22;96.62;96390.03;4380579;32;20181;-65
2022/10/03 08:15:45;;;;;;;1.63;1.53;;;;;;;12.20;96.65;96391.38;4379800;32;20211;-64
2022/10/03 08:18:29;;;;;;;2.10;2.00;;;;;;;12.11;96.63;96388.50;4386552;32;20210;-66
2022/10/03 08:21:28;;;;;;;1.80;1.70;;;;;;;12.10;96.69;96386.13;4345681;32;20250;-66
2022/10/03 08:24:02;;;;;;;2.87;1.53;;;;;;;12.00;97.29;96394.97;4349539;32;20185;-66
2022/10/03 08:26:37;;;;;;;1.70;1.60;;;;;;;12.15;96.58;96392.22;4369008;32;20270;-66
2022/10/03 08:29:14;;;;;;;3.13;2.93;;;;;;;12.25;95.67;96404.66;4389566;32;20206;-64
2022/10/03 08:31:55;;;;;;;7.37;2.20;;;;;;;12.32;94.82;96397.94;4389291;32;20283;-51
2022/10/03 08:35:00;;;;;;;5.17;1.63;;;;;;;13.05;100.00;96402.38;4389720;32;20183;-50
2022/10/03 08:38:10;;;;;;;20.07;1.67;;;;;;;13.92;98.06;96413.66;4379574;32;20184;-49
2022/10/03 08:41:13;;;;;;;4.47;1.90;;;;;;;14.84;92.27;96405.09;4387069;32;20183;-53
2022/10/03 08:44:01;;;;;;;5.30;1.80;;;;;;;15.39;89.50;96403.25;4405529;32;20260;-50
2022/10/03 08:46:45;;;;;;;1.30;1.30;;;;;;;15.75;86.70;96405.28;4384826;32;20228;-50
2022/10/03 08:49:32;;;;;;;7.17;2.00;;;;;;;15.87;83.98;96407.44;4379858;32;20210;-49
2022/10/03 08:52:06;;;;;;;0.60;0.60;;;;;;;16.00;82.24;96417.34;4375053;32;20189;-49
2022/10/03 08:55:06;;;;;;;1.40;1.30;;;;;;;16.21;81.97;96412.34;4375482;32;20260;-52
2022/10/03 08:58:02;;;;;;;1.13;1.13;;;;;;;16.24;80.50;96414.41;4314531;32;20228;-47
2022/10/03 09:00:51;;;;;;;3.57;2.23;;;;;;;16.34;80.58;96420.31;4350773;32;20243;-48
2022/10/03 09:03:55;;;;;;;1.63;1.53;;;;;;;16.26;78.29;96430.94;4395044;32;20184;-47
2022/10/03 09:06:45;;;;;;;3.73;1.70;;;;;;;16.35;79.27;96424.59;4364931;32;20188;-51
2022/10/03 09:09:42;;;;;;;1.80;1.70;;;;;;;16.32;80.14;96424.41;4398908;32;20262;-46
2022/10/03 09:12:19;;;;;;;3.83;1.33;;;;;;;16.32;78.49;96425.19;4383108;32;20229;-47
2022/10/03 09:15:10;;;;;;;1.43;1.33;;;;;;;16.21;77.40;96425.72;4366317;32;20204;-48
2022/10/03 09:18:21;;;;;;;1.90;1.80;;;;;;;16.11;78.54;96424.84;4381104;32;20275;-50
2022/10/03 09:21:25;;;;;;;1.40;1.27;;;;;;;16.08;79.79;96427.31;4319762;32;20262;-50
2022/10/03 09:24:17;;;;;;;2.33;1.60;;;;;;;16.22;78.94;96425.41;4370533;32;20288;-49
2022/10/03 09:27:00;;;;;;;1.37;1.37;;;;;;;16.25;79.32;96419.44;4383002;32;20271;-47
2022/10/03 09:30:10;;;;;;;1.50;1.50;;;;;;;16.06;79.51;96414.25;4388048;32;20237;-48
2022/10/03 09:32:57;;;;;;;1.67;1.60;;;;;;;15.95;78.84;96420.13;4341398;32;20272;-48
2022/10/03 09:35:57;;;;;;;1.33;1.23;;;;;;;16.01;79.86;96425.06;4372612;32;20188;-50
2022/10/03 09:38:41;;;;;;;2.33;2.00;;;;;;;15.95;79.75;96426.28;4377974;32;20203;-50
2022/10/03 09:41:43;;;;;;;1.40;1.40;;;;;;;15.95;79.50;96425.47;4377928;32;20255;-53
2022/10/03 09:44:21;;;;;;;1.07;1.07;;;;;;;16.09;79.98;96424.34;4352940;32;20304;-47
2022/10/03 09:47:28;;;;;;;3.33;2.40;;;;;;;16.05;78.38;96425.25;4379623;32;20195;-50
2022/10/03 09:50:18;;;;;;;1.60;1.50;;;;;;;15.80;77.79;96423.88;4400529;32;20207;-51
2022/10/03 09:53:11;;;;;;;1.73;1.63;;;;;;;16.02;77.97;96425.84;4392969;32;20225;-51
2022/10/03 09:56:13;;;;;;;1.10;1.10;;;;;;;15.89;78.58;96429.34;4382148;32;20211;-49
2022/10/03 09:59:13;;;;;;;1.33;1.33;;;;;;;15.84;79.22;96424.09;4358950;32;20200;-48
2022/10/03 10:02:12;;;;;;;4.90;1.77;;;;;;;15.71;78.24;96423.81;4369382;32;20206;-50
2022/10/03 10:05:10;;;;;;;1.47;1.37;;;;;;;15.67;79.84;96419.34;4331693;32;20269;-52
2022/10/03 10:08:03;;;;;;;0.93;0.93;;;;;;;15.73;79.42;96418.16;4361707;32;20191;-47
2022/10/03 10:11:07;;;;;;;2.73;2.03;;;;;;;15.83;78.19;96417.94;4385609;32;20184;-47
2022/10/03 10:13:45;;;;;;;3.60;1.40;;;;;;;15.87;78.97;96413.59;4350764;32;20185;-50
2022/10/03 10:16:28;;;;;;;1.80;0.93;;;;;;;15.96;77.44;96411.00;4317646;32;20269;-52
2022/10/03 10:19:12;;;;;;;3.00;1.50;;;;;;;15.89;77.97;96411.41;4374128;32;20191;-53
2022/10/03 10:22:05;;;;;;;2.40;1.67;;;;;;;15.93;78.76;96400.91;4364538;32;20259;-69
2022/10/03 10:25:04;;;;;;;3.10;1.33;;;;;;;15.60;77.35;96398.34;4366190;32;20251;-64
2022/10/03 10:27:59;;;;;;;2.37;1.33;;;;;;;15.02;76.41;96398.09;4387368;32;20240;-64
2022/10/03 10:31:00;;;;;;;1.07;1.07;;;;;;;14.29;79.71;96412.06;4418701;32;20200;-65
2022/10/03 10:34:01;;;;;;;2.70;1.83;;;;;;;14.15;80.14;96408.53;4355509;32;20192;-65
2022/10/03 10:37:09;;;;;;;0.73;0.73;;;;;;;13.98;81.59;96403.69;4349334;32;20180;-65
2022/10/03 10:40:13;;;;;;;1.53;1.43;;;;;;;14.08;81.61;96401.69;4387402;32;20203;-64
2022/10/03 10:43:16;;;;;;;1.00;1.00;;;;;;;13.85;80.80;96402.53;4375677;32;20195;-64
2022/10/03 10:46:03;;;;;;;1.33;1.17;;;;;;;13.48;82.74;96397.94;4348554;32;20319;-64
2022/10/03 10:49:07;;;;;;;0.97;0.97;;;;;;;13.35;83.57;96398.63;4393352;32;20259;-64
2022/10/03 10:52:12;;;;;;;1.93;1.83;;;;;;;13.28;82.63;96404.31;4354368;32;20193;-63
2022/10/03 10:55:07;;;;;;;1.33;1.33;;;;;;;13.19;82.78;96398.00;4385320;32;20243;-64
2022/10/03 10:57:58;;;;;;;1.23;1.17;;;;;;;13.13;84.06;96395.63;4368846;32;20184;-63
2022/10/03 11:00:32;;;;;;;1.83;1.37;;;;;;;13.16;84.76;96400.41;4382838;32;20264;-64
2022/10/03 11:03:36;;;;;;;1.33;1.33;;;;;;;13.16;85.23;96403.87;4389167;32;20212;-64
2022/10/03 11:06:30;;;;;;;0.53;0.53;;;;;;;13.11;85.21;96387.13;4369062;32;20199;-64
2022/10/03 11:09:22;;;;;;;0.90;0.90;;;;;;;13.25;84.32;96388.87;4383170;32;20191;-65
2022/10/03 11:12:25;;;;;;;0.80;0.80;;;;;;;13.50;85.49;96384.34;4390051;32;20256;-64
2022/10/03 11:15:10;;;;;;;2.20;1.00;;;;;;;13.53;81.33;96392.53;4384949;32;20192;-65
2022/10/03 11:17:36;;;;;;;1.53;1.33;;;;;;;13.59;80.54;96395.94;4398614;32;20196;-63
2022/10/03 11:20:25;;;;;;;1.10;1.10;;;;;;;13.56;81.13;96391.97;4397305;32;20206;-64
2022/10/03 11:23:16;;;;;;;1.00;0.93;;;;;;;13.50;80.74;96392.34;4365011;32;20189;-64
2022/10/03 11:26:03;;;;;;;1.07;1.07;;;;;;;13.34;80.35;96389.03;4400064;32;20195;-64
2022/10/03 11:28:34;;;;;;;1.03;1.03;;;;;;;13.35;80.77;96393.28;4365101;32;20204;-66
2022/10/03 11:31:38;;;;;;;0.83;0.83;;;;;;;13.25;80.80;96380.09;4371229;32;20188;-66
2022/10/03 11:34:21;;;;;;;5.50;1.23;;;;;;;13.44;79.46;96380.94;4364896;32;20235;-66
2022/10/03 11:37:13;;;;;;;7.93;1.30;;;;;;;13.55;76.27;96373.59;4403064;32;20185;-66
2022/10/03 11:39:41;;;;;;;1.57;1.47;;;;;;;13.73;75.61;96370.16;4373502;32;20272;-65
2022/10/03 11:42:44;;;;;;;0.33;0.33;;;;;;;13.77;74.26;96381.84;4389599;32;20200;-65
2022/10/03 11:45:33;;;;;;;0.80;0.80;;;;;;;13.82;76.59;96378.31;4390493;32;20277;-66
2022/10/03 11:48:31;;;;;;;0.70;0.70;;;;;;;13.65;75.62;96374.25;4374900;32;20188;-66
2022/10/03 11:51:33;;;;;;;0.97;0.97;;;;;;;13.75;76.54;96368.78;4386736;32;20188;-65
2022/10/03 11:54:24;;;;;;;0.83;0.83;;;;;;;13.91;73.52;96366.72;4390376;32;20191;-65
2022/10/03 11:56:58;;;;;;;5.50;1.43;;;;;;;13.97;72.76;96375.44;4385798;32;20259;-65
2022/10/03 11:59:39;;;;;;;0.80;0.80;;;;;;;14.12;69.50;96369.91;4357695;32;20184;-66
2022/10/03 12:02:36;;;;;;;5.50;1.53;;;;;;;14.20;71.11;96369.22;4392809;32;20210;-63
2022/10/03 12:05:44;;;;;;;5.37;1.97;;;;;;;14.12;71.59;96372.56;4347838;32;20214;-67
2022/10/03 12:11:25;;;;;;;2.77;1.23;;;;;;;14.15;73.99;96360.50;4365566;32;20234;-67
2022/10/03 12:14:10;;;;;;;0.30;0.30;;;;;;;14.12;73.59;96364.56;4375754;32;20196;-67
2022/10/03 12:16:56;;;;;;;4.17;0.90;;;;;;;14.18;75.53;96362.59;4372505;32;20257;-67
2022/10/03 12:19:49;;;;;;;1.37;0.87;;;;;;;14.21;72.84;96357.47;4380228;32;20283;-66
2022/10/03 12:22:57;;;;;;;3.70;1.13;;;;;;;14.19;71.50;96353.50;4375146;32;20203;-68
2022/10/03 12:25:35;;;;;;;2.33;1.30;;;;;;;14.32;72.98;96348.22;4405257;32;20237;-65
2022/10/03 12:28:24;;;;;;;1.23;1.23;;;;;;;14.49;76.44;96346.94;4375839;32;20235;-67
2022/10/03 12:31:13;;;;;;;0.83;0.83;;;;;;;14.63;75.33;96337.06;4372993;32;20223;-67
2022/10/03 12:33:51;;;;;;;1.40;1.33;;;;;;;14.85;74.29;96342.53;4377780;32;20203;-67
2022/10/03 12:36:40;;;;;;;2.13;1.60;;;;;;;15.01;71.91;96327.81;4364573;32;20196;-67
2022/10/03 12:39:41;;;;;;;1.60;1.30;;;;;;;15.07;70.08;96331.97;4386581;32;20183;-68
2022/10/03 12:42:21;;;;;;;1.07;1.03;;;;;;;15.04;72.31;96337.13;4393113;32;20188;-68
2022/10/03 12:45:25;;;;;;;0.83;0.83;;;;;;;15.04;68.90;96339.78;4390513;32;20207;-67
2022/10/03 12:48:15;;;;;;;1.37;1.37;;;;;;;15.08;69.98;96338.91;4388316;32;20257;-67
2022/10/03 12:51:07;;;;;;;0.57;0.57;;;;;;;14.96;67.84;96325.25;4367204;32;20358;-67
2022/10/03 12:54:07;;;;;;;0.93;0.93;;;;;;;14.99;69.07;96327.31;4355196;32;20203;-68
2022/10/03 12:56:46;;;;;;;3.43;1.40;;;;;;;14.87;70.84;96332.34;4380763;32;20225;-68
2022/10/03 12:59:30;;;;;;;1.07;1.07;;;;;;;14.66;72.39;96333.81;4400235;32;20282;-67
2022/10/03 13:02:34;;;;;;;1.30;1.30;;;;;;;14.53;71.59;96335.37;4408419;32;20252;-67
2022/10/03 13:05:23;;;;;;;1.10;1.10;;;;;;;14.36;73.53;96337.75;4377849;32;20185;-68
2022/10/03 13:07:55;;;;;;;0.70;0.70;;;;;;;14.48;73.28;96334.66;4384862;32;20238;-68
2022/10/03 13:10:44;;;;;;;1.13;1.13;;;;;;;14.40;71.98;96334.22;4370165;32;20236;-67
2022/10/03 13:13:52;;;;;;;1.60;1.33;;;;;;;14.39;71.64;96327.28;4370533;32;20278;-67
2022/10/03 13:16:28;;;;;;;2.20;1.10;;;;;;;14.42;70.28;96334.72;4390910;32;20188;-67
2022/10/03 13:19:12;;;;;;;4.57;1.03;;;;;;;14.48;68.60;96323.97;4402052;32;20185;-67
2022/10/03 13:22:05;;;;;;;0.80;0.80;;;;;;;14.39;67.39;96323.81;4352244;32;20198;-68
2022/10/03 13:25:09;;;;;;;0.80;0.80;;;;;;;14.39;68.69;96329.94;4358698;32;20177;-68
2022/10/03 13:27:39;;;;;;;0.83;0.83;;;;;;;14.46;66.85;96328.81;4383178;32;20206;-68
2022/10/03 13:30:35;;;;;;;4.80;1.37;;;;;;;14.61;66.62;96324.00;4391725;32;20207;-68